sensor_id;sensor_type;location;lat;lon;timestamp;P1;durP1;ratioP1;P2;durP2;ratioP2
43857;SDS011;29507;51.284;5.758;2023-05-07T00:01:42;10.43;;;7.13;;
43857;SDS011;29507;51.284;5.758;2023-05-07T00:04:07;11.45;;;7.25;;
43857;SDS011;29507;51.284;5.758;2023-05-07T00:06:33;13.00;;;7.95;;
43857;SDS011;29507;51.284;5.758;2023-05-07T00:08:59;9.40;;;6.30;;
43857;SDS011;29507;51.284;5.758;2023-05-07T00:11:25;9.50;;;6.57;;
43857;SDS011;29507;51.284;5.758;2023-05-07T00:13:51;9.55;;;5.60;;
43857;SDS011;29507;51.284;5.758;2023-05-07T00:16:17;12.48;;;6.43;;
43857;SDS011;29507;51.284;5.758;2023-05-07T00:18:42;8.52;;;5.72;;
43857;SDS011;29507;51.284;5.758;2023-05-07T00:21:08;8.60;;;5.55;;
43857;SDS011;29507;51.284;5.758;2023-05-07T00:23:34;11.32;;;6.28;;
43857;SDS011;29507;51.284;5.758;2023-05-07T00:25:59;12.18;;;7.00;;
43857;SDS011;29507;51.284;5.758;2023-05-07T00:28:25;13.60;;;7.25;;
43857;SDS011;29507;51.284;5.758;2023-05-07T00:30:51;14.07;;;7.85;;
43857;SDS011;29507;51.284;5.758;2023-05-07T00:33:17;15.10;;;7.80;;
43857;SDS011;29507;51.284;5.758;2023-05-07T00:35:42;11.82;;;7.28;;
43857;SDS011;29507;51.284;5.758;2023-05-07T00:38:08;13.43;;;8.57;;
43857;SDS011;29507;51.284;5.758;2023-05-07T00:40:34;13.23;;;8.68;;
43857;SDS011;29507;51.284;5.758;2023-05-07T00:42:59;17.13;;;9.88;;
43857;SDS011;29507;51.284;5.758;2023-05-07T00:45:28;16.05;;;10.75;;
43857;SDS011;29507;51.284;5.758;2023-05-07T00:47:55;19.52;;;10.52;;
43857;SDS011;29507;51.284;5.758;2023-05-07T00:50:22;17.00;;;10.10;;
43857;SDS011;29507;51.284;5.758;2023-05-07T00:52:48;18.63;;;11.10;;
43857;SDS011;29507;51.284;5.758;2023-05-07T00:55:14;14.25;;;9.70;;
43857;SDS011;29507;51.284;5.758;2023-05-07T00:57:40;17.15;;;9.70;;
43857;SDS011;29507;51.284;5.758;2023-05-07T01:00:06;16.88;;;10.40;;
43857;SDS011;29507;51.284;5.758;2023-05-07T01:02:40;17.00;;;9.77;;
43857;SDS011;29507;51.284;5.758;2023-05-07T01:05:06;18.35;;;9.88;;
43857;SDS011;29507;51.284;5.758;2023-05-07T01:07:34;22.73;;;11.77;;
43857;SDS011;29507;51.284;5.758;2023-05-07T01:10:00;19.90;;;11.95;;
43857;SDS011;29507;51.284;5.758;2023-05-07T01:12:28;24.27;;;13.32;;
43857;SDS011;29507;51.284;5.758;2023-05-07T01:14:54;22.38;;;12.65;;
43857;SDS011;29507;51.284;5.758;2023-05-07T01:17:20;20.30;;;12.57;;
43857;SDS011;29507;51.284;5.758;2023-05-07T01:19:45;19.65;;;11.70;;
43857;SDS011;29507;51.284;5.758;2023-05-07T01:22:12;21.27;;;12.90;;
43857;SDS011;29507;51.284;5.758;2023-05-07T01:24:41;22.48;;;12.63;;
43857;SDS011;29507;51.284;5.758;2023-05-07T01:27:07;20.27;;;12.63;;
43857;SDS011;29507;51.284;5.758;2023-05-07T01:29:33;25.85;;;13.30;;
43857;SDS011;29507;51.284;5.758;2023-05-07T01:31:59;23.67;;;13.93;;
43857;SDS011;29507;51.284;5.758;2023-05-07T01:34:27;23.27;;;13.57;;
43857;SDS011;29507;51.284;5.758;2023-05-07T01:36:55;21.58;;;13.80;;
43857;SDS011;29507;51.284;5.758;2023-05-07T01:39:24;25.63;;;13.30;;
43857;SDS011;29507;51.284;5.758;2023-05-07T01:41:52;20.08;;;13.18;;
43857;SDS011;29507;51.284;5.758;2023-05-07T01:44:21;25.25;;;14.43;;
43857;SDS011;29507;51.284;5.758;2023-05-07T01:46:48;26.30;;;14.50;;
43857;SDS011;29507;51.284;5.758;2023-05-07T01:49:14;28.30;;;14.93;;
43857;SDS011;29507;51.284;5.758;2023-05-07T01:51:41;22.98;;;15.00;;
43857;SDS011;29507;51.284;5.758;2023-05-07T01:54:07;23.80;;;13.75;;
43857;SDS011;29507;51.284;5.758;2023-05-07T01:56:33;23.67;;;14.93;;
43857;SDS011;29507;51.284;5.758;2023-05-07T01:58:59;26.65;;;14.45;;
43857;SDS011;29507;51.284;5.758;2023-05-07T02:01:24;21.60;;;13.70;;
43857;SDS011;29507;51.284;5.758;2023-05-07T02:03:50;22.10;;;13.00;;
43857;SDS011;29507;51.284;5.758;2023-05-07T02:06:15;24.70;;;14.65;;
43857;SDS011;29507;51.284;5.758;2023-05-07T02:08:41;23.77;;;14.02;;
43857;SDS011;29507;51.284;5.758;2023-05-07T02:11:07;24.92;;;14.50;;
43857;SDS011;29507;51.284;5.758;2023-05-07T02:13:33;27.23;;;15.63;;
43857;SDS011;29507;51.284;5.758;2023-05-07T02:18:27;25.98;;;14.23;;
43857;SDS011;29507;51.284;5.758;2023-05-07T02:20:53;24.65;;;13.98;;
43857;SDS011;29507;51.284;5.758;2023-05-07T02:23:19;21.17;;;11.77;;
43857;SDS011;29507;51.284;5.758;2023-05-07T02:25:44;29.38;;;14.55;;
43857;SDS011;29507;51.284;5.758;2023-05-07T02:28:11;23.20;;;13.05;;
43857;SDS011;29507;51.284;5.758;2023-05-07T02:30:37;26.02;;;12.90;;
43857;SDS011;29507;51.284;5.758;2023-05-07T02:33:03;19.52;;;10.93;;
43857;SDS011;29507;51.284;5.758;2023-05-07T02:35:28;23.60;;;12.85;;
43857;SDS011;29507;51.284;5.758;2023-05-07T02:37:54;20.08;;;10.55;;
43857;SDS011;29507;51.284;5.758;2023-05-07T02:40:20;21.63;;;11.38;;
43857;SDS011;29507;51.284;5.758;2023-05-07T02:42:45;22.98;;;14.30;;
43857;SDS011;29507;51.284;5.758;2023-05-07T02:45:12;29.13;;;15.02;;
43857;SDS011;29507;51.284;5.758;2023-05-07T02:47:37;26.60;;;14.90;;
43857;SDS011;29507;51.284;5.758;2023-05-07T02:50:03;25.92;;;14.30;;
43857;SDS011;29507;51.284;5.758;2023-05-07T02:52:29;28.58;;;13.90;;
43857;SDS011;29507;51.284;5.758;2023-05-07T02:54:55;30.63;;;16.48;;
43857;SDS011;29507;51.284;5.758;2023-05-07T02:57:20;28.45;;;16.02;;
43857;SDS011;29507;51.284;5.758;2023-05-07T02:59:46;27.52;;;15.52;;
43857;SDS011;29507;51.284;5.758;2023-05-07T03:02:11;30.13;;;15.80;;
43857;SDS011;29507;51.284;5.758;2023-05-07T03:04:38;30.60;;;16.23;;
43857;SDS011;29507;51.284;5.758;2023-05-07T03:07:04;29.75;;;16.60;;
43857;SDS011;29507;51.284;5.758;2023-05-07T03:09:30;30.08;;;15.38;;
43857;SDS011;29507;51.284;5.758;2023-05-07T03:11:56;28.48;;;13.95;;
43857;SDS011;29507;51.284;5.758;2023-05-07T03:14:22;28.58;;;15.55;;
43857;SDS011;29507;51.284;5.758;2023-05-07T03:16:48;28.35;;;16.00;;
43857;SDS011;29507;51.284;5.758;2023-05-07T03:19:14;31.38;;;17.17;;
43857;SDS011;29507;51.284;5.758;2023-05-07T03:21:40;31.90;;;16.88;;
43857;SDS011;29507;51.284;5.758;2023-05-07T03:24:06;29.58;;;16.35;;
43857;SDS011;29507;51.284;5.758;2023-05-07T03:26:31;31.88;;;16.27;;
43857;SDS011;29507;51.284;5.758;2023-05-07T03:28:57;32.83;;;15.38;;
43857;SDS011;29507;51.284;5.758;2023-05-07T03:31:23;22.80;;;12.45;;
43857;SDS011;29507;51.284;5.758;2023-05-07T03:33:52;27.67;;;14.13;;
43857;SDS011;29507;51.284;5.758;2023-05-07T03:36:19;33.80;;;15.95;;
43857;SDS011;29507;51.284;5.758;2023-05-07T03:38:45;33.13;;;16.70;;
43857;SDS011;29507;51.284;5.758;2023-05-07T03:41:11;29.30;;;17.05;;
43857;SDS011;29507;51.284;5.758;2023-05-07T03:43:36;26.88;;;14.93;;
43857;SDS011;29507;51.284;5.758;2023-05-07T03:46:02;29.92;;;15.90;;
43857;SDS011;29507;51.284;5.758;2023-05-07T03:48:28;24.58;;;14.40;;
43857;SDS011;29507;51.284;5.758;2023-05-07T03:50:53;28.27;;;15.20;;
43857;SDS011;29507;51.284;5.758;2023-05-07T03:53:19;32.75;;;16.90;;
43857;SDS011;29507;51.284;5.758;2023-05-07T03:55:44;32.65;;;17.35;;
43857;SDS011;29507;51.284;5.758;2023-05-07T03:58:10;31.27;;;16.27;;
43857;SDS011;29507;51.284;5.758;2023-05-07T04:00:35;33.78;;;16.73;;
43857;SDS011;29507;51.284;5.758;2023-05-07T04:03:03;32.50;;;16.55;;
43857;SDS011;29507;51.284;5.758;2023-05-07T04:05:29;30.17;;;16.02;;
43857;SDS011;29507;51.284;5.758;2023-05-07T04:07:55;30.17;;;15.73;;
43857;SDS011;29507;51.284;5.758;2023-05-07T04:10:22;28.90;;;15.40;;
43857;SDS011;29507;51.284;5.758;2023-05-07T04:12:48;27.83;;;15.27;;
43857;SDS011;29507;51.284;5.758;2023-05-07T04:15:13;27.02;;;15.80;;
43857;SDS011;29507;51.284;5.758;2023-05-07T04:17:39;28.05;;;15.38;;
43857;SDS011;29507;51.284;5.758;2023-05-07T04:20:06;29.95;;;15.18;;
43857;SDS011;29507;51.284;5.758;2023-05-07T04:25:01;27.40;;;13.75;;
43857;SDS011;29507;51.284;5.758;2023-05-07T04:27:27;27.17;;;14.93;;
43857;SDS011;29507;51.284;5.758;2023-05-07T04:29:53;34.17;;;16.60;;
43857;SDS011;29507;51.284;5.758;2023-05-07T04:32:20;29.55;;;15.02;;
43857;SDS011;29507;51.284;5.758;2023-05-07T04:34:46;32.40;;;17.30;;
43857;SDS011;29507;51.284;5.758;2023-05-07T04:37:12;28.65;;;15.30;;
43857;SDS011;29507;51.284;5.758;2023-05-07T04:39:37;28.48;;;15.95;;
43857;SDS011;29507;51.284;5.758;2023-05-07T04:42:03;29.75;;;16.55;;
43857;SDS011;29507;51.284;5.758;2023-05-07T04:44:28;33.95;;;17.17;;
43857;SDS011;29507;51.284;5.758;2023-05-07T04:46:56;28.15;;;15.25;;
43857;SDS011;29507;51.284;5.758;2023-05-07T04:49:21;29.45;;;16.70;;
43857;SDS011;29507;51.284;5.758;2023-05-07T04:51:47;33.10;;;16.48;;
43857;SDS011;29507;51.284;5.758;2023-05-07T04:54:13;34.40;;;16.83;;
43857;SDS011;29507;51.284;5.758;2023-05-07T04:56:38;31.60;;;15.80;;
43857;SDS011;29507;51.284;5.758;2023-05-07T04:59:04;33.78;;;16.52;;
43857;SDS011;29507;51.284;5.758;2023-05-07T05:01:30;33.97;;;16.90;;
43857;SDS011;29507;51.284;5.758;2023-05-07T05:03:56;31.23;;;15.13;;
43857;SDS011;29507;51.284;5.758;2023-05-07T05:06:21;30.92;;;15.82;;
43857;SDS011;29507;51.284;5.758;2023-05-07T05:08:47;29.77;;;16.95;;
43857;SDS011;29507;51.284;5.758;2023-05-07T05:11:13;28.95;;;16.38;;
43857;SDS011;29507;51.284;5.758;2023-05-07T05:13:38;28.27;;;15.98;;
43857;SDS011;29507;51.284;5.758;2023-05-07T05:16:04;27.27;;;16.42;;
43857;SDS011;29507;51.284;5.758;2023-05-07T05:18:30;27.38;;;15.07;;
43857;SDS011;29507;51.284;5.758;2023-05-07T05:20:57;24.45;;;14.10;;
43857;SDS011;29507;51.284;5.758;2023-05-07T05:23:23;24.42;;;14.45;;
43857;SDS011;29507;51.284;5.758;2023-05-07T05:25:48;24.92;;;13.77;;
43857;SDS011;29507;51.284;5.758;2023-05-07T05:28:14;21.85;;;13.25;;
43857;SDS011;29507;51.284;5.758;2023-05-07T05:30:40;20.08;;;12.80;;
43857;SDS011;29507;51.284;5.758;2023-05-07T05:33:05;19.65;;;12.77;;
43857;SDS011;29507;51.284;5.758;2023-05-07T05:35:31;20.55;;;12.60;;
43857;SDS011;29507;51.284;5.758;2023-05-07T05:37:57;23.23;;;12.07;;
43857;SDS011;29507;51.284;5.758;2023-05-07T05:40:22;22.45;;;12.73;;
43857;SDS011;29507;51.284;5.758;2023-05-07T05:42:48;19.25;;;11.18;;
43857;SDS011;29507;51.284;5.758;2023-05-07T05:45:14;22.38;;;11.75;;
43857;SDS011;29507;51.284;5.758;2023-05-07T05:47:39;17.10;;;11.20;;
43857;SDS011;29507;51.284;5.758;2023-05-07T05:50:06;22.23;;;13.20;;
43857;SDS011;29507;51.284;5.758;2023-05-07T05:52:32;18.58;;;11.48;;
43857;SDS011;29507;51.284;5.758;2023-05-07T05:54:57;16.88;;;9.85;;
43857;SDS011;29507;51.284;5.758;2023-05-07T05:57:23;16.15;;;10.25;;
43857;SDS011;29507;51.284;5.758;2023-05-07T05:59:48;16.50;;;10.18;;
43857;SDS011;29507;51.284;5.758;2023-05-07T06:02:14;17.73;;;10.35;;
43857;SDS011;29507;51.284;5.758;2023-05-07T06:04:40;22.58;;;11.50;;
43857;SDS011;29507;51.284;5.758;2023-05-07T06:07:07;17.58;;;9.75;;
43857;SDS011;29507;51.284;5.758;2023-05-07T06:09:32;18.33;;;10.63;;
43857;SDS011;29507;51.284;5.758;2023-05-07T06:11:58;17.27;;;9.52;;
43857;SDS011;29507;51.284;5.758;2023-05-07T06:14:24;17.58;;;9.48;;
43857;SDS011;29507;51.284;5.758;2023-05-07T06:16:49;20.05;;;11.30;;
43857;SDS011;29507;51.284;5.758;2023-05-07T06:19:15;15.65;;;9.77;;
43857;SDS011;29507;51.284;5.758;2023-05-07T06:21:43;15.48;;;9.65;;
43857;SDS011;29507;51.284;5.758;2023-05-07T06:24:08;14.02;;;8.80;;
43857;SDS011;29507;51.284;5.758;2023-05-07T06:26:35;12.45;;;7.75;;
43857;SDS011;29507;51.284;5.758;2023-05-07T06:29:00;14.55;;;8.75;;
43857;SDS011;29507;51.284;5.758;2023-05-07T06:31:28;16.42;;;8.48;;
43857;SDS011;29507;51.284;5.758;2023-05-07T06:33:56;13.23;;;8.30;;
43857;SDS011;29507;51.284;5.758;2023-05-07T06:36:22;12.75;;;7.55;;
43857;SDS011;29507;51.284;5.758;2023-05-07T06:38:48;14.80;;;9.02;;
43857;SDS011;29507;51.284;5.758;2023-05-07T06:41:13;14.05;;;7.95;;
43857;SDS011;29507;51.284;5.758;2023-05-07T06:43:39;12.43;;;7.68;;
43857;SDS011;29507;51.284;5.758;2023-05-07T06:46:04;11.02;;;7.40;;
43857;SDS011;29507;51.284;5.758;2023-05-07T06:48:30;14.35;;;7.72;;
43857;SDS011;29507;51.284;5.758;2023-05-07T06:50:56;9.98;;;6.35;;
43857;SDS011;29507;51.284;5.758;2023-05-07T06:53:22;13.23;;;7.05;;
43857;SDS011;29507;51.284;5.758;2023-05-07T06:55:48;12.15;;;7.20;;
43857;SDS011;29507;51.284;5.758;2023-05-07T06:58:14;11.57;;;6.72;;
43857;SDS011;29507;51.284;5.758;2023-05-07T07:00:40;11.18;;;6.75;;
43857;SDS011;29507;51.284;5.758;2023-05-07T07:03:06;14.52;;;7.07;;
43857;SDS011;29507;51.284;5.758;2023-05-07T07:05:31;12.40;;;6.05;;
43857;SDS011;29507;51.284;5.758;2023-05-07T07:07:57;12.20;;;6.85;;
43857;SDS011;29507;51.284;5.758;2023-05-07T07:10:23;8.85;;;5.90;;
43857;SDS011;29507;51.284;5.758;2023-05-07T07:12:49;11.15;;;6.72;;
43857;SDS011;29507;51.284;5.758;2023-05-07T07:15:15;10.27;;;6.32;;
43857;SDS011;29507;51.284;5.758;2023-05-07T07:17:41;11.85;;;5.72;;
43857;SDS011;29507;51.284;5.758;2023-05-07T07:20:07;12.25;;;6.32;;
43857;SDS011;29507;51.284;5.758;2023-05-07T07:22:33;9.10;;;5.57;;
43857;SDS011;29507;51.284;5.758;2023-05-07T07:24:59;8.70;;;5.07;;
43857;SDS011;29507;51.284;5.758;2023-05-07T07:27:24;11.32;;;5.40;;
43857;SDS011;29507;51.284;5.758;2023-05-07T07:29:50;8.27;;;5.53;;
43857;SDS011;29507;51.284;5.758;2023-05-07T07:32:16;9.05;;;5.18;;
43857;SDS011;29507;51.284;5.758;2023-05-07T07:34:41;9.20;;;5.40;;
43857;SDS011;29507;51.284;5.758;2023-05-07T07:37:07;14.43;;;6.05;;
43857;SDS011;29507;51.284;5.758;2023-05-07T07:39:33;7.95;;;5.20;;
43857;SDS011;29507;51.284;5.758;2023-05-07T07:41:58;12.05;;;6.28;;
43857;SDS011;29507;51.284;5.758;2023-05-07T07:44:24;9.80;;;5.28;;
43857;SDS011;29507;51.284;5.758;2023-05-07T07:46:50;9.52;;;5.55;;
43857;SDS011;29507;51.284;5.758;2023-05-07T07:49:16;10.63;;;5.85;;
43857;SDS011;29507;51.284;5.758;2023-05-07T07:51:42;9.32;;;5.03;;
43857;SDS011;29507;51.284;5.758;2023-05-07T07:54:08;9.80;;;5.50;;
43857;SDS011;29507;51.284;5.758;2023-05-07T07:56:34;9.23;;;5.13;;
43857;SDS011;29507;51.284;5.758;2023-05-07T07:59:00;8.52;;;5.00;;
43857;SDS011;29507;51.284;5.758;2023-05-07T08:01:25;9.23;;;5.20;;
43857;SDS011;29507;51.284;5.758;2023-05-07T08:03:51;8.40;;;5.13;;
43857;SDS011;29507;51.284;5.758;2023-05-07T08:06:17;9.75;;;5.55;;
43857;SDS011;29507;51.284;5.758;2023-05-07T08:08:42;9.07;;;5.55;;
43857;SDS011;29507;51.284;5.758;2023-05-07T08:11:08;13.32;;;7.07;;
43857;SDS011;29507;51.284;5.758;2023-05-07T08:13:34;12.45;;;6.07;;
43857;SDS011;29507;51.284;5.758;2023-05-07T08:16:00;10.00;;;5.47;;
43857;SDS011;29507;51.284;5.758;2023-05-07T08:18:25;9.48;;;5.85;;
43857;SDS011;29507;51.284;5.758;2023-05-07T08:20:53;13.27;;;6.07;;
43857;SDS011;29507;51.284;5.758;2023-05-07T08:23:19;8.30;;;5.15;;
43857;SDS011;29507;51.284;5.758;2023-05-07T08:25:44;11.55;;;6.35;;
43857;SDS011;29507;51.284;5.758;2023-05-07T08:28:10;11.07;;;5.60;;
43857;SDS011;29507;51.284;5.758;2023-05-07T08:30:36;10.43;;;5.60;;
43857;SDS011;29507;51.284;5.758;2023-05-07T08:33:01;8.48;;;4.68;;
43857;SDS011;29507;51.284;5.758;2023-05-07T08:35:27;9.60;;;5.00;;
43857;SDS011;29507;51.284;5.758;2023-05-07T08:37:52;7.13;;;4.85;;
43857;SDS011;29507;51.284;5.758;2023-05-07T08:40:18;7.07;;;4.40;;
43857;SDS011;29507;51.284;5.758;2023-05-07T08:42:45;7.68;;;4.18;;
43857;SDS011;29507;51.284;5.758;2023-05-07T08:45:13;7.57;;;4.53;;
43857;SDS011;29507;51.284;5.758;2023-05-07T08:47:43;7.50;;;4.30;;
43857;SDS011;29507;51.284;5.758;2023-05-07T08:50:11;8.30;;;3.88;;
43857;SDS011;29507;51.284;5.758;2023-05-07T08:52:38;9.10;;;3.78;;
43857;SDS011;29507;51.284;5.758;2023-05-07T08:55:05;11.02;;;4.82;;
43857;SDS011;29507;51.284;5.758;2023-05-07T08:57:32;8.75;;;3.58;;
43857;SDS011;29507;51.284;5.758;2023-05-07T08:59:58;8.35;;;3.97;;
43857;SDS011;29507;51.284;5.758;2023-05-07T09:02:23;10.38;;;4.05;;
43857;SDS011;29507;51.284;5.758;2023-05-07T09:04:49;7.05;;;3.60;;
43857;SDS011;29507;51.284;5.758;2023-05-07T09:07:15;7.47;;;3.58;;
43857;SDS011;29507;51.284;5.758;2023-05-07T09:09:41;5.65;;;3.10;;
43857;SDS011;29507;51.284;5.758;2023-05-07T09:12:08;9.73;;;3.60;;
43857;SDS011;29507;51.284;5.758;2023-05-07T09:14:34;5.35;;;3.00;;
43857;SDS011;29507;51.284;5.758;2023-05-07T09:17:00;8.25;;;3.45;;
43857;SDS011;29507;51.284;5.758;2023-05-07T09:19:26;6.45;;;3.75;;
43857;SDS011;29507;51.284;5.758;2023-05-07T09:21:59;6.78;;;3.30;;
43857;SDS011;29507;51.284;5.758;2023-05-07T09:24:26;4.55;;;2.78;;
43857;SDS011;29507;51.284;5.758;2023-05-07T09:26:53;6.82;;;3.28;;
43857;SDS011;29507;51.284;5.758;2023-05-07T09:29:20;5.63;;;2.92;;
43857;SDS011;29507;51.284;5.758;2023-05-07T09:31:46;5.13;;;3.03;;
43857;SDS011;29507;51.284;5.758;2023-05-07T09:34:11;5.28;;;2.67;;
43857;SDS011;29507;51.284;5.758;2023-05-07T09:36:37;6.53;;;3.38;;
43857;SDS011;29507;51.284;5.758;2023-05-07T09:39:02;4.90;;;2.88;;
43857;SDS011;29507;51.284;5.758;2023-05-07T09:41:29;8.30;;;3.28;;
43857;SDS011;29507;51.284;5.758;2023-05-07T09:43:56;4.55;;;3.13;;
43857;SDS011;29507;51.284;5.758;2023-05-07T09:46:27;5.70;;;2.60;;
43857;SDS011;29507;51.284;5.758;2023-05-07T09:48:56;5.40;;;2.80;;
43857;SDS011;29507;51.284;5.758;2023-05-07T09:51:30;6.15;;;3.33;;
43857;SDS011;29507;51.284;5.758;2023-05-07T09:54:04;4.53;;;2.70;;
43857;SDS011;29507;51.284;5.758;2023-05-07T09:56:31;5.60;;;3.00;;
43857;SDS011;29507;51.284;5.758;2023-05-07T09:58:57;7.95;;;3.40;;
43857;SDS011;29507;51.284;5.758;2023-05-07T10:01:25;5.37;;;3.17;;
43857;SDS011;29507;51.284;5.758;2023-05-07T10:03:52;6.18;;;3.35;;
43857;SDS011;29507;51.284;5.758;2023-05-07T10:06:19;4.82;;;2.55;;
43857;SDS011;29507;51.284;5.758;2023-05-07T10:08:45;5.78;;;3.58;;
43857;SDS011;29507;51.284;5.758;2023-05-07T10:11:11;6.97;;;3.30;;
43857;SDS011;29507;51.284;5.758;2023-05-07T10:13:38;5.65;;;3.42;;
43857;SDS011;29507;51.284;5.758;2023-05-07T10:16:06;7.22;;;3.50;;
43857;SDS011;29507;51.284;5.758;2023-05-07T10:18:32;6.00;;;3.35;;
43857;SDS011;29507;51.284;5.758;2023-05-07T10:21:01;7.72;;;3.25;;
43857;SDS011;29507;51.284;5.758;2023-05-07T10:23:31;5.95;;;3.28;;
43857;SDS011;29507;51.284;5.758;2023-05-07T10:25:58;5.10;;;3.45;;
43857;SDS011;29507;51.284;5.758;2023-05-07T10:28:27;5.15;;;3.13;;
43857;SDS011;29507;51.284;5.758;2023-05-07T10:30:58;5.68;;;3.03;;
43857;SDS011;29507;51.284;5.758;2023-05-07T10:33:33;5.55;;;2.38;;
43857;SDS011;29507;51.284;5.758;2023-05-07T10:36:01;4.65;;;2.67;;
43857;SDS011;29507;51.284;5.758;2023-05-07T10:38:29;5.05;;;2.55;;
43857;SDS011;29507;51.284;5.758;2023-05-07T10:40:55;4.97;;;2.22;;
43857;SDS011;29507;51.284;5.758;2023-05-07T10:43:21;4.05;;;2.08;;
43857;SDS011;29507;51.284;5.758;2023-05-07T10:48:35;2.90;;;1.20;;
43857;SDS011;29507;51.284;5.758;2023-05-07T10:51:31;5.28;;;1.33;;
43857;SDS011;29507;51.284;5.758;2023-05-07T10:56:39;5.23;;;1.93;;
43857;SDS011;29507;51.284;5.758;2023-05-07T11:01:55;7.03;;;1.50;;
43857;SDS011;29507;51.284;5.758;2023-05-07T11:04:28;5.00;;;1.88;;
43857;SDS011;29507;51.284;5.758;2023-05-07T11:15:04;3.38;;;1.25;;
43857;SDS011;29507;51.284;5.758;2023-05-07T11:17:31;5.00;;;1.50;;
43857;SDS011;29507;51.284;5.758;2023-05-07T11:19:59;4.93;;;1.30;;
43857;SDS011;29507;51.284;5.758;2023-05-07T11:25:02;2.63;;;1.40;;
43857;SDS011;29507;51.284;5.758;2023-05-07T11:27:28;2.75;;;1.13;;
43857;SDS011;29507;51.284;5.758;2023-05-07T11:29:55;2.45;;;1.00;;
43857;SDS011;29507;51.284;5.758;2023-05-07T11:32:24;2.72;;;1.10;;
43857;SDS011;29507;51.284;5.758;2023-05-07T11:34:51;4.75;;;1.60;;
43857;SDS011;29507;51.284;5.758;2023-05-07T11:37:19;3.53;;;1.27;;
43857;SDS011;29507;51.284;5.758;2023-05-07T11:39:45;3.42;;;1.75;;
43857;SDS011;29507;51.284;5.758;2023-05-07T11:44:54;4.80;;;1.33;;
43857;SDS011;29507;51.284;5.758;2023-05-07T11:47:20;3.83;;;1.45;;
43857;SDS011;29507;51.284;5.758;2023-05-07T11:49:47;3.50;;;1.45;;
43857;SDS011;29507;51.284;5.758;2023-05-07T11:52:14;3.15;;;1.40;;
43857;SDS011;29507;51.284;5.758;2023-05-07T11:54:41;3.40;;;0.80;;
43857;SDS011;29507;51.284;5.758;2023-05-07T11:57:06;2.05;;;1.02;;
43857;SDS011;29507;51.284;5.758;2023-05-07T11:59:39;2.28;;;1.17;;
43857;SDS011;29507;51.284;5.758;2023-05-07T12:02:05;2.83;;;1.15;;
43857;SDS011;29507;51.284;5.758;2023-05-07T12:04:32;3.63;;;1.30;;
43857;SDS011;29507;51.284;5.758;2023-05-07T12:06:57;5.43;;;1.58;;
43857;SDS011;29507;51.284;5.758;2023-05-07T12:09:23;2.90;;;1.30;;
43857;SDS011;29507;51.284;5.758;2023-05-07T12:11:49;5.10;;;1.20;;
43857;SDS011;29507;51.284;5.758;2023-05-07T12:14:16;4.07;;;1.27;;
43857;SDS011;29507;51.284;5.758;2023-05-07T12:16:44;3.10;;;1.13;;
43857;SDS011;29507;51.284;5.758;2023-05-07T12:19:11;3.65;;;1.30;;
43857;SDS011;29507;51.284;5.758;2023-05-07T12:21:40;3.22;;;1.40;;
43857;SDS011;29507;51.284;5.758;2023-05-07T12:24:05;2.13;;;0.80;;
43857;SDS011;29507;51.284;5.758;2023-05-07T12:26:33;4.10;;;1.30;;
43857;SDS011;29507;51.284;5.758;2023-05-07T12:29:03;4.88;;;1.20;;
43857;SDS011;29507;51.284;5.758;2023-05-07T12:31:28;2.50;;;0.90;;
43857;SDS011;29507;51.284;5.758;2023-05-07T12:33:55;3.10;;;0.98;;
43857;SDS011;29507;51.284;5.758;2023-05-07T12:36:20;2.10;;;1.05;;
43857;SDS011;29507;51.284;5.758;2023-05-07T12:38:46;6.97;;;1.83;;
43857;SDS011;29507;51.284;5.758;2023-05-07T12:41:15;3.58;;;1.83;;
43857;SDS011;29507;51.284;5.758;2023-05-07T12:43:43;6.13;;;2.65;;
43857;SDS011;29507;51.284;5.758;2023-05-07T12:46:10;6.05;;;2.13;;
43857;SDS011;29507;51.284;5.758;2023-05-07T12:48:38;5.30;;;2.20;;
43857;SDS011;29507;51.284;5.758;2023-05-07T12:51:08;5.10;;;1.92;;
43857;SDS011;29507;51.284;5.758;2023-05-07T12:53:39;4.15;;;2.10;;
43857;SDS011;29507;51.284;5.758;2023-05-07T12:56:07;3.28;;;1.83;;
43857;SDS011;29507;51.284;5.758;2023-05-07T12:58:33;3.95;;;1.58;;
43857;SDS011;29507;51.284;5.758;2023-05-07T13:01:01;2.80;;;1.30;;
43857;SDS011;29507;51.284;5.758;2023-05-07T13:03:31;5.15;;;1.80;;
43857;SDS011;29507;51.284;5.758;2023-05-07T13:06:08;6.30;;;1.25;;
43857;SDS011;29507;51.284;5.758;2023-05-07T13:08:41;4.50;;;1.40;;
43857;SDS011;29507;51.284;5.758;2023-05-07T13:11:10;3.40;;;1.50;;
43857;SDS011;29507;51.284;5.758;2023-05-07T13:13:37;6.43;;;1.58;;
43857;SDS011;29507;51.284;5.758;2023-05-07T13:16:04;3.45;;;1.40;;
43857;SDS011;29507;51.284;5.758;2023-05-07T13:18:30;4.13;;;1.77;;
43857;SDS011;29507;51.284;5.758;2023-05-07T13:20:57;3.85;;;1.65;;
43857;SDS011;29507;51.284;5.758;2023-05-07T13:23:24;5.97;;;1.98;;
43857;SDS011;29507;51.284;5.758;2023-05-07T13:25:52;4.65;;;1.85;;
43857;SDS011;29507;51.284;5.758;2023-05-07T13:28:21;7.78;;;2.25;;
43857;SDS011;29507;51.284;5.758;2023-05-07T13:30:48;3.17;;;1.70;;
43857;SDS011;29507;51.284;5.758;2023-05-07T13:33:14;5.70;;;1.65;;
43857;SDS011;29507;51.284;5.758;2023-05-07T13:35:41;5.95;;;1.95;;
43857;SDS011;29507;51.284;5.758;2023-05-07T13:38:06;7.20;;;2.13;;
43857;SDS011;29507;51.284;5.758;2023-05-07T13:40:32;4.93;;;1.52;;
43857;SDS011;29507;51.284;5.758;2023-05-07T13:42:58;4.43;;;1.50;;
43857;SDS011;29507;51.284;5.758;2023-05-07T13:45:26;3.83;;;1.60;;
43857;SDS011;29507;51.284;5.758;2023-05-07T13:47:54;2.78;;;1.20;;
43857;SDS011;29507;51.284;5.758;2023-05-07T13:50:20;4.30;;;1.23;;
43857;SDS011;29507;51.284;5.758;2023-05-07T13:52:45;3.45;;;1.10;;
43857;SDS011;29507;51.284;5.758;2023-05-07T13:55:15;2.22;;;0.85;;
43857;SDS011;29507;51.284;5.758;2023-05-07T13:57:45;2.58;;;0.80;;
43857;SDS011;29507;51.284;5.758;2023-05-07T14:00:11;1.42;;;0.57;;
43857;SDS011;29507;51.284;5.758;2023-05-07T14:02:38;1.55;;;0.82;;
43857;SDS011;29507;51.284;5.758;2023-05-07T14:05:03;2.22;;;1.02;;
43857;SDS011;29507;51.284;5.758;2023-05-07T14:07:29;3.90;;;1.25;;
43857;SDS011;29507;51.284;5.758;2023-05-07T14:09:56;2.45;;;0.70;;
43857;SDS011;29507;51.284;5.758;2023-05-07T14:12:22;1.83;;;0.60;;
43857;SDS011;29507;51.284;5.758;2023-05-07T14:14:47;3.60;;;0.77;;
43857;SDS011;29507;51.284;5.758;2023-05-07T14:17:14;2.85;;;1.15;;
43857;SDS011;29507;51.284;5.758;2023-05-07T14:19:41;1.50;;;0.80;;
43857;SDS011;29507;51.284;5.758;2023-05-07T14:22:07;2.10;;;1.33;;
43857;SDS011;29507;51.284;5.758;2023-05-07T14:24:33;4.75;;;1.67;;
43857;SDS011;29507;51.284;5.758;2023-05-07T14:26:59;3.78;;;1.80;;
43857;SDS011;29507;51.284;5.758;2023-05-07T14:29:24;2.75;;;1.50;;
43857;SDS011;29507;51.284;5.758;2023-05-07T14:31:50;2.45;;;1.52;;
43857;SDS011;29507;51.284;5.758;2023-05-07T14:34:16;4.18;;;1.90;;
43857;SDS011;29507;51.284;5.758;2023-05-07T14:36:42;3.25;;;2.03;;
43857;SDS011;29507;51.284;5.758;2023-05-07T14:39:08;2.72;;;1.83;;
43857;SDS011;29507;51.284;5.758;2023-05-07T14:41:34;6.97;;;1.65;;
43857;SDS011;29507;51.284;5.758;2023-05-07T14:44:00;3.00;;;2.03;;
43857;SDS011;29507;51.284;5.758;2023-05-07T14:46:26;5.10;;;2.55;;
43857;SDS011;29507;51.284;5.758;2023-05-07T14:48:52;4.95;;;3.13;;
43857;SDS011;29507;51.284;5.758;2023-05-07T14:51:18;4.15;;;2.28;;
43857;SDS011;29507;51.284;5.758;2023-05-07T14:53:43;3.70;;;2.60;;
43857;SDS011;29507;51.284;5.758;2023-05-07T14:56:09;3.95;;;2.28;;
43857;SDS011;29507;51.284;5.758;2023-05-07T14:58:35;5.32;;;2.30;;